Time;durP1;ratioP1;P1;durP2;ratioP2;P2;SDS_P1;SDS_P2;PMS_P1;PMS_P2;Temp;Humidity;BMP_temperature;BMP_pressure;BME280_temperature;BME280_humidity;BME280_pressure;Samples;Min_cycle;Max_cycle;Signal;HPM_P1;HPM_P2
2022/05/11 00:01:57;;;;;;;7.97;3.95;;;;;;;15.77;60.84;101273.72;4910461;29;20046;-61
2022/05/11 00:04:22;;;;;;;5.97;3.75;;;;;;;15.75;61.17;101258.88;4910857;29;20024;-61
2022/05/11 00:06:49;;;;;;;5.07;3.60;;;;;;;15.76;61.26;101253.34;4913127;29;20039;-61
2022/05/11 00:09:15;;;;;;;7.10;3.53;;;;;;;15.74;61.01;101258.06;4914074;29;20071;-61
2022/05/11 00:11:42;;;;;;;7.13;3.60;;;;;;;15.75;61.60;101257.03;4914675;29;20114;-61
2022/05/11 00:14:07;;;;;;;7.35;3.80;;;;;;;15.75;61.56;101254.34;4914614;29;20039;-61
2022/05/11 00:16:34;;;;;;;6.88;3.72;;;;;;;15.76;61.57;101258.69;4915449;29;20024;-61
2022/05/11 00:18:59;;;;;;;7.50;3.47;;;;;;;15.79;61.30;101246.75;4913501;29;20508;-61
2022/05/11 00:21:25;;;;;;;6.93;3.60;;;;;;;15.77;61.22;101241.59;4914501;29;20047;-61
2022/05/11 00:23:53;;;;;;;7.25;3.67;;;;;;;15.79;61.29;101247.59;4914390;29;20043;-61
2022/05/11 00:26:19;;;;;;;7.72;3.55;;;;;;;15.76;61.46;101239.94;4914342;29;20122;-61
2022/05/11 00:28:45;;;;;;;7.57;3.83;;;;;;;15.80;61.39;101243.06;4913337;29;20156;-61
2022/05/11 00:31:10;;;;;;;11.13;3.88;;;;;;;15.80;61.63;101237.69;4914367;29;20107;-61
2022/05/11 00:33:36;;;;;;;10.43;4.00;;;;;;;15.82;61.45;101245.53;4914670;29;20520;-61
2022/05/11 00:36:02;;;;;;;6.63;3.90;;;;;;;15.83;61.70;101242.66;4914455;29;20409;-61
2022/05/11 00:38:28;;;;;;;7.88;4.22;;;;;;;15.81;61.40;101236.66;4913982;29;21896;-61
2022/05/11 00:40:57;;;;;;;8.98;4.10;;;;;;;15.80;61.67;101233.16;4913453;29;20082;-61
2022/05/11 00:43:31;;;;;;;7.95;4.03;;;;;;;15.80;61.60;101230.50;4913883;29;20119;-61
2022/05/11 00:46:07;;;;;;;8.85;3.80;;;;;;;15.80;61.44;101227.81;4914350;29;20043;-61
2022/05/11 00:51:17;;;;;;;7.47;3.92;;;;;;;15.79;61.87;101220.81;4921033;29;20071;-61
2022/05/11 00:53:46;;;;;;;7.55;3.95;;;;;;;15.79;61.85;101220.81;4914288;29;20064;-61
2022/05/11 00:56:13;;;;;;;6.60;3.97;;;;;;;15.78;61.76;101219.16;4913491;29;20142;-61
2022/05/11 00:58:44;;;;;;;6.93;3.97;;;;;;;15.79;62.12;101219.97;4913167;29;20036;-61
2022/05/11 01:01:09;;;;;;;8.27;4.30;;;;;;;15.77;61.76;101219.34;4913117;29;20535;-61
2022/05/11 01:03:40;;;;;;;7.50;4.18;;;;;;;15.77;61.74;101212.13;4914574;29;20024;-61
2022/05/11 01:06:08;;;;;;;10.15;4.13;;;;;;;15.77;62.25;101208.63;4913279;29;20490;-61
2022/05/11 01:08:33;;;;;;;9.18;4.20;;;;;;;15.74;62.23;101201.81;4912539;29;20027;-61
2022/05/11 01:11:04;;;;;;;7.32;4.00;;;;;;;15.70;62.26;101200.56;4913401;29;20020;-61
2022/05/11 01:13:32;;;;;;;8.00;4.32;;;;;;;15.66;62.05;101204.66;4913474;29;20042;-61
2022/05/11 01:15:59;;;;;;;11.67;4.20;;;;;;;15.68;62.26;101201.78;4914019;29;20079;-61
2022/05/11 01:18:25;;;;;;;7.60;4.10;;;;;;;15.68;62.07;101197.25;4913236;29;20636;-61
2022/05/11 01:20:51;;;;;;;6.80;3.95;;;;;;;15.66;62.14;101188.59;4912732;29;20035;-61
2022/05/11 01:23:38;;;;;;;8.73;3.95;;;;;;;15.64;62.16;101189.81;4913188;29;20040;-61
2022/05/11 01:26:04;;;;;;;8.07;4.00;;;;;;;15.64;61.89;101189.81;4913719;29;20409;-61
2022/05/11 01:28:30;;;;;;;7.80;4.07;;;;;;;15.61;61.62;101196.38;4912849;29;20028;-61
2022/05/11 01:31:05;;;;;;;6.57;3.95;;;;;;;15.62;62.10;101203.38;4913125;29;20477;-61
2022/05/11 01:33:31;;;;;;;5.95;3.58;;;;;;;15.64;61.58;101200.53;4901988;29;20429;-61
2022/05/11 01:36:07;;;;;;;8.40;3.83;;;;;;;15.65;61.67;101199.50;4913226;29;20088;-61
2022/05/11 01:38:47;;;;;;;6.28;3.72;;;;;;;15.66;61.73;101191.25;4912390;29;20111;-61
2022/05/11 01:41:27;;;;;;;6.25;3.70;;;;;;;15.67;61.80;101194.78;4912576;29;20062;-61
2022/05/11 01:43:53;;;;;;;8.60;3.70;;;;;;;15.65;61.59;101186.09;4912594;29;20043;-61
2022/05/11 01:46:18;;;;;;;9.80;3.80;;;;;;;15.66;61.48;101180.56;4913461;29;20619;-61
2022/05/11 01:48:44;;;;;;;9.43;4.00;;;;;;;15.65;61.52;101184.25;4911956;29;20505;-61
2022/05/11 01:51:15;;;;;;;10.07;3.95;;;;;;;15.65;61.35;101181.59;4912797;29;20040;-61
2022/05/11 01:53:41;;;;;;;5.60;3.42;;;;;;;15.64;61.40;101179.94;4912739;29;20402;-61
2022/05/11 01:56:08;;;;;;;7.38;3.40;;;;;;;15.63;61.80;101175.59;4912881;29;20032;-61
2022/05/11 01:58:33;;;;;;;6.53;3.38;;;;;;;15.62;61.41;101168.59;4911656;29;20028;-61
2022/05/11 02:00:59;;;;;;;5.90;3.33;;;;;;;15.60;61.68;101170.59;4913237;29;20043;-61
2022/05/11 02:03:25;;;;;;;7.70;3.10;;;;;;;15.62;61.35;101176.63;4912819;29;20044;-61
2022/05/11 02:08:37;;;;;;;10.27;3.60;;;;;;;15.60;61.76;101173.28;4912039;29;20035;-61
2022/05/11 02:11:03;;;;;;;5.65;3.45;;;;;;;15.57;61.61;101167.47;4912652;29;20036;-61
2022/05/11 02:13:29;;;;;;;5.40;3.10;;;;;;;15.55;61.80;101164.97;4912698;29;20283;-61
2022/05/11 02:15:55;;;;;;;7.55;3.65;;;;;;;15.53;61.94;101166.19;4912674;29;20035;-61
2022/05/11 02:18:21;;;;;;;6.00;3.45;;;;;;;15.54;61.71;101163.31;4912327;29;20378;-61
2022/05/11 02:20:46;;;;;;;6.25;3.53;;;;;;;15.53;61.86;101167.03;4911348;29;20103;-61
2022/05/11 02:23:16;;;;;;;8.25;3.40;;;;;;;15.52;61.90;101165.38;4912073;29;20032;-61
2022/05/11 02:26:02;;;;;;;9.85;3.65;;;;;;;15.52;62.21;101164.53;4912356;29;20032;-62
2022/05/11 02:28:28;;;;;;;7.68;3.80;;;;;;;15.48;62.27;101153.41;4909799;29;20044;-61
2022/05/11 02:30:57;;;;;;;5.40;3.30;;;;;;;15.48;62.32;101164.13;4911808;29;20032;-61
2022/05/11 02:33:23;;;;;;;7.20;3.42;;;;;;;15.48;62.61;101162.25;4911985;29;20039;-61
2022/05/11 02:35:49;;;;;;;6.95;3.60;;;;;;;15.46;62.45;101161.63;4911129;29;20042;-61
2022/05/11 02:38:19;;;;;;;4.97;3.45;;;;;;;15.45;62.82;101165.34;4911567;29;20036;-61
2022/05/11 02:40:44;;;;;;;5.40;3.50;;;;;;;15.44;62.83;101168.22;4911636;29;20058;-61
2022/05/11 02:43:11;;;;;;;6.95;3.30;;;;;;;15.44;62.73;101162.84;4911731;29;20036;-61
2022/05/11 02:45:39;;;;;;;7.88;3.38;;;;;;;15.42;62.35;101162.22;4912746;29;20043;-61
2022/05/11 02:48:07;;;;;;;5.22;3.10;;;;;;;15.45;62.35;101165.34;4911693;29;20028;-61
2022/05/11 02:50:55;;;;;;;5.63;3.10;;;;;;;15.45;62.62;101168.00;4910690;29;20024;-61
2022/05/11 02:53:21;;;;;;;8.48;3.40;;;;;;;15.45;62.83;101159.16;4911521;29;20092;-61
2022/05/11 02:55:49;;;;;;;5.55;3.10;;;;;;;15.44;62.30;101163.69;4912355;29;20110;-61
2022/05/11 02:58:17;;;;;;;5.95;2.95;;;;;;;15.44;62.38;101157.50;4911015;29;20080;-61
2022/05/11 03:00:46;;;;;;;5.67;2.70;;;;;;;15.43;62.44;101153.16;4907987;29;20482;-61
2022/05/11 03:03:13;;;;;;;7.18;3.20;;;;;;;15.45;62.38;101154.63;4907200;29;20557;-61
2022/05/11 03:05:40;;;;;;;6.13;3.30;;;;;;;15.45;62.13;101148.44;4928527;29;20063;-61
2022/05/11 03:08:05;;;;;;;5.70;3.08;;;;;;;15.39;62.49;101146.56;4925971;29;20509;-61
2022/05/11 03:10:31;;;;;;;7.90;2.85;;;;;;;15.40;62.47;101134.81;4910010;29;20103;-61
2022/05/11 03:12:57;;;;;;;6.50;2.60;;;;;;;15.43;62.07;101145.13;4911883;29;20114;-61
2022/05/11 03:15:23;;;;;;;6.07;2.80;;;;;;;15.43;62.17;101134.44;4911212;29;20035;-62
2022/05/11 03:17:49;;;;;;;4.68;2.67;;;;;;;15.42;61.99;101128.25;4911682;29;20028;-61
2022/05/11 03:20:14;;;;;;;5.47;2.72;;;;;;;15.43;62.13;101126.41;4910813;29;20470;-61
2022/05/11 03:22:40;;;;;;;4.65;2.58;;;;;;;15.40;61.88;101124.13;4911283;29;20031;-61
2022/05/11 03:25:07;;;;;;;3.95;2.70;;;;;;;15.42;61.99;101127.44;4911368;29;20058;-61
2022/05/11 03:27:33;;;;;;;3.83;2.67;;;;;;;15.42;62.05;101130.09;4911694;29;20034;-61
2022/05/11 03:29:58;;;;;;;3.63;2.80;;;;;;;15.40;61.88;101119.59;4909903;29;20036;-61
2022/05/11 03:35:10;;;;;;;4.97;2.70;;;;;;;15.42;61.95;101124.75;4914409;29;20051;-61
2022/05/11 03:37:37;;;;;;;4.18;2.30;;;;;;;15.38;62.43;101118.13;4913635;29;20053;-61
2022/05/11 03:40:05;;;;;;;5.78;2.80;;;;;;;15.34;62.31;101115.03;4913373;29;20042;-61
2022/05/11 03:42:32;;;;;;;5.97;2.70;;;;;;;15.35;62.57;101105.16;4906751;29;20027;-61
2022/05/11 03:45:06;;;;;;;5.72;2.83;;;;;;;15.34;62.55;101112.34;4922610;29;20024;-61
2022/05/11 03:47:31;;;;;;;5.90;2.83;;;;;;;15.29;62.47;101101.38;4919468;29;20661;-61
2022/05/11 03:49:56;;;;;;;5.03;2.78;;;;;;;15.30;62.47;101100.34;4920958;29;20306;-61
2022/05/11 03:52:23;;;;;;;5.10;3.10;;;;;;;15.29;62.60;101103.22;4913898;29;20028;-61
2022/05/11 03:54:48;;;;;;;3.05;2.50;;;;;;;15.29;63.05;101105.91;4917800;29;20046;-61
2022/05/11 03:57:13;;;;;;;10.50;3.25;;;;;;;15.21;63.15;101092.69;4916117;29;20666;-61
2022/05/11 03:59:39;;;;;;;6.15;2.90;;;;;;;15.26;63.08;101101.78;4914440;29;20107;-61
2022/05/11 04:02:04;;;;;;;5.53;2.80;;;;;;;15.26;62.77;101104.44;4918737;29;20050;-61
2022/05/11 04:04:29;;;;;;;5.20;2.95;;;;;;;15.26;63.01;101103.63;4911305;29;20386;-61
2022/05/11 04:06:55;;;;;;;3.72;2.90;;;;;;;15.17;62.85;101089.56;4910014;29;20040;-60
2022/05/11 04:09:20;;;;;;;4.85;3.05;;;;;;;15.22;63.11;101110.38;4917558;29;20036;-61
2022/05/11 04:11:46;;;;;;;4.95;2.88;;;;;;;15.20;62.98;101107.91;4910648;29;20497;-61
2022/05/11 04:14:11;;;;;;;6.75;3.15;;;;;;;15.18;63.23;101099.25;4926750;29;20036;-60
2022/05/11 04:16:36;;;;;;;4.88;2.88;;;;;;;15.15;63.57;101094.28;4915366;29;20043;-60
2022/05/11 04:19:02;;;;;;;7.82;3.05;;;;;;;15.15;63.39;101092.44;4909844;29;20051;-62
2022/05/11 04:21:27;;;;;;;5.80;2.78;;;;;;;15.13;63.40;101093.66;4915626;29;20031;-61
2022/05/11 04:23:54;;;;;;;5.05;3.13;;;;;;;15.10;63.53;101089.53;4912350;29;20052;-61
2022/05/11 04:26:19;;;;;;;5.70;3.28;;;;;;;15.12;63.74;101094.69;4911015;29;20513;-61
2022/05/11 04:28:44;;;;;;;5.95;3.13;;;;;;;15.14;63.49;101100.66;4911442;29;20031;-61
2022/05/11 04:31:12;;;;;;;3.85;2.70;;;;;;;15.15;63.31;101100.47;4912658;29;20400;-61
2022/05/11 04:33:37;;;;;;;5.93;2.85;;;;;;;15.15;63.57;101092.44;4910538;29;20127;-61
2022/05/11 04:36:04;;;;;;;4.78;2.67;;;;;;;15.19;63.58;101096.38;4910615;29;20103;-61
2022/05/11 04:38:29;;;;;;;7.10;3.42;;;;;;;15.21;63.27;101092.69;4910344;29;20028;-61
2022/05/11 04:40:54;;;;;;;3.55;2.60;;;;;;;15.22;63.72;101091.66;4909181;29;20091;-61
2022/05/11 04:43:20;;;;;;;4.68;2.67;;;;;;;15.23;63.54;101094.13;4910548;29;20040;-61
2022/05/11 04:45:47;;;;;;;8.02;2.65;;;;;;;15.22;63.53;101088.97;4910536;29;20056;-61
2022/05/11 04:48:15;;;;;;;6.40;2.70;;;;;;;15.25;63.85;101099.28;4910597;29;20593;-61
2022/05/11 04:50:42;;;;;;;6.20;3.00;;;;;;;15.25;63.65;101100.13;4909832;29;20035;-61
2022/05/11 04:53:12;;;;;;;4.68;2.60;;;;;;;15.27;63.39;101097.25;4927231;29;20035;-61
2022/05/11 04:55:38;;;;;;;7.00;3.03;;;;;;;15.29;64.02;101100.56;4914255;29;20418;-61
2022/05/11 04:58:04;;;;;;;6.32;2.67;;;;;;;15.30;63.50;101100.34;4913877;29;20513;-61
2022/05/11 05:00:30;;;;;;;5.15;2.88;;;;;;;15.31;64.05;101096.66;4912908;29;20031;-61
2022/05/11 05:02:55;;;;;;;6.63;2.65;;;;;;;15.32;63.70;101098.31;4913836;29;20521;-61
2022/05/11 05:05:21;;;;;;;4.00;2.60;;;;;;;15.32;63.58;101092.13;4913993;29;20098;-60
2022/05/11 05:07:46;;;;;;;3.97;2.72;;;;;;;15.34;64.01;101106.19;4913605;29;20462;-61
2022/05/11 05:10:13;;;;;;;4.72;2.90;;;;;;;15.34;64.04;101106.19;4912466;29;20415;-61
2022/05/11 05:12:43;;;;;;;5.90;2.97;;;;;;;15.34;63.87;101098.16;4913945;29;20067;-61
2022/05/11 05:15:11;;;;;;;6.72;2.70;;;;;;;15.35;63.83;101102.47;4913820;29;20028;-61
2022/05/11 05:17:37;;;;;;;5.93;2.90;;;;;;;15.35;63.65;101110.50;4914029;29;20446;-61
2022/05/11 05:20:04;;;;;;;3.83;2.75;;;;;;;15.34;63.66;101111.53;4912312;29;20032;-61
2022/05/11 05:22:30;;;;;;;5.68;2.80;;;;;;;15.33;64.03;101109.88;4913359;29;20043;-61
2022/05/11 05:24:55;;;;;;;4.72;2.97;;;;;;;15.30;63.89;101111.06;4913359;29;20028;-61
2022/05/11 05:27:20;;;;;;;6.22;2.85;;;;;;;15.30;64.67;101113.75;4913607;29;20036;-61
2022/05/11 05:32:35;;;;;;;6.30;2.97;;;;;;;15.37;65.01;101132.53;4912018;29;20058;-61
2022/05/11 05:35:00;;;;;;;5.57;2.78;;;;;;;15.40;64.82;101132.97;4909192;29;20039;-61
2022/05/11 05:37:26;;;;;;;5.75;2.95;;;;;;;15.46;64.58;101123.34;4916242;29;20040;-61
2022/05/11 05:39:51;;;;;;;6.47;2.92;;;;;;;15.49;64.38;101120.25;4915791;29;20040;-60
2022/05/11 05:42:22;;;;;;;5.38;3.00;;;;;;;15.51;64.30;101118.22;4909780;29;20023;-61
2022/05/11 05:44:48;;;;;;;4.25;2.85;;;;;;;15.55;64.11;101124.81;4918863;29;20031;-61
2022/05/11 05:47:15;;;;;;;6.03;3.20;;;;;;;15.55;64.04;101116.78;4916171;29;20225;-61
2022/05/11 05:49:40;;;;;;;4.90;3.17;;;;;;;15.57;64.17;101116.59;4906624;29;20032;-61
2022/05/11 05:52:07;;;;;;;6.22;2.80;;;;;;;15.62;63.68;101132.97;4911589;29;20047;-61
2022/05/11 05:54:35;;;;;;;4.80;2.63;;;;;;;15.60;63.06;101135.81;4917686;29;20024;-61
2022/05/11 05:57:01;;;;;;;5.78;2.95;;;;;;;15.59;62.96;101126.13;4907816;29;20024;-61
2022/05/11 05:59:26;;;;;;;7.43;3.10;;;;;;;15.63;62.42;101135.44;4903499;29;20036;-61
2022/05/11 06:01:52;;;;;;;4.03;2.75;;;;;;;15.59;62.23;101126.13;4925447;29;20028;-61
2022/05/11 06:04:18;;;;;;;5.72;2.80;;;;;;;15.57;62.38;101127.31;4918073;29;20035;-61
2022/05/11 06:06:43;;;;;;;4.95;2.70;;;;;;;15.60;62.55;101132.28;4912465;29;20071;-61
2022/05/11 06:09:09;;;;;;;7.00;3.00;;;;;;;15.57;62.11;101130.81;4911247;29;20651;-61
2022/05/11 06:11:35;;;;;;;7.03;2.67;;;;;;;15.54;61.85;101125.03;4912946;29;20059;-61
2022/05/11 06:14:01;;;;;;;4.78;2.28;;;;;;;15.51;61.83;101123.56;4916978;29;20416;-61
2022/05/11 06:16:26;;;;;;;7.47;2.50;;;;;;;15.53;61.50;101113.50;4912125;29;20032;-61
2022/05/11 06:18:51;;;;;;;4.63;2.50;;;;;;;15.57;61.37;101117.44;4926567;29;20396;-61
2022/05/11 06:21:16;;;;;;;4.70;2.50;;;;;;;15.60;61.48;101113.56;4911922;29;20034;-61
2022/05/11 06:23:42;;;;;;;7.78;2.85;;;;;;;15.69;61.34;101121.25;4911379;29;20084;-61
2022/05/11 06:26:09;;;;;;;6.97;2.40;;;;;;;15.75;61.46;101125.81;4926493;29;20055;-61
2022/05/11 06:28:37;;;;;;;4.65;2.55;;;;;;;15.80;60.69;101128.72;4911613;29;20398;-61
2022/05/11 06:31:02;;;;;;;7.22;2.33;;;;;;;15.90;60.71;101116.81;4912318;29;20064;-61
2022/05/11 06:33:27;;;;;;;5.00;2.38;;;;;;;15.98;60.52;101127.38;4913716;29;20458;-61
2022/05/11 06:35:53;;;;;;;7.30;2.60;;;;;;;16.03;59.79;101115.03;4917775;29;20075;-61
2022/05/11 06:38:18;;;;;;;6.32;2.75;;;;;;;16.08;60.02;101125.16;4913124;29;20124;-61
2022/05/11 06:40:43;;;;;;;6.32;2.08;;;;;;;16.06;58.95;101116.50;4911029;29;20032;-61
2022/05/11 06:43:08;;;;;;;5.32;2.58;;;;;;;16.09;59.22;101116.09;4911836;29;20032;-61
2022/05/11 06:45:34;;;;;;;5.68;2.60;;;;;;;16.06;58.73;101113.81;4914436;29;20023;-61
2022/05/11 06:47:59;;;;;;;6.18;2.38;;;;;;;16.00;58.13;101107.41;4915019;29;20502;-61
2022/05/11 06:50:26;;;;;;;8.00;2.80;;;;;;;16.00;58.45;101117.28;4917122;29;20030;-61
2022/05/11 06:52:53;;;;;;;6.28;2.60;;;;;;;15.96;57.98;101122.22;4917436;29;20051;-61
2022/05/11 07:00:48;;;;;;;8.90;3.03;;;;;;;16.11;59.42;101116.72;4907233;29;20043;-61
2022/05/11 07:03:13;;;;;;;5.03;3.05;;;;;;;16.06;59.36;101117.31;4911116;29;20032;-61
2022/05/11 07:05:41;;;;;;;8.10;3.22;;;;;;;16.10;59.75;101121.25;4907898;29;20044;-61
2022/05/11 07:08:07;;;;;;;10.18;3.05;;;;;;;16.08;59.46;101114.44;4909385;29;20088;-61
2022/05/11 07:10:42;;;;;;;8.75;3.05;;;;;;;16.09;58.56;101127.63;4916232;29;20024;-61
2022/05/11 07:13:08;;;;;;;6.30;3.00;;;;;;;16.08;59.01;101109.06;4909949;29;20028;-60
2022/05/11 07:15:34;;;;;;;4.97;3.20;;;;;;;16.06;59.21;101122.66;4912565;29;20047;-59
2022/05/11 07:18:03;;;;;;;8.20;3.60;;;;;;;15.99;58.70;101123.69;4902252;29;20028;-60
2022/05/11 07:20:34;;;;;;;9.07;3.15;;;;;;;15.93;58.70;101113.75;4911260;29;20040;-60
2022/05/11 07:23:01;;;;;;;6.35;3.42;;;;;;;15.91;59.07;101116.66;4914735;29;20031;-60
2022/05/11 07:25:27;;;;;;;11.82;3.50;;;;;;;15.98;59.67;101120.16;4911030;29;20028;-60
2022/05/11 07:27:54;;;;;;;6.45;3.20;;;;;;;16.03;59.07;101120.41;4911257;29;20617;-60
2022/05/11 07:30:23;;;;;;;9.18;3.10;;;;;;;16.13;58.48;101109.28;4910493;29;20039;-59
2022/05/11 07:32:49;;;;;;;7.00;2.67;;;;;;;16.17;57.46;101115.91;4909963;29;20161;-60
2022/05/11 07:35:15;;;;;;;5.45;2.78;;;;;;;16.21;57.02;101116.34;4909957;29;20090;-59
2022/05/11 07:37:40;;;;;;;5.18;2.60;;;;;;;16.28;56.87;101107.31;4908836;29;20036;-60
2022/05/11 07:40:07;;;;;;;6.60;2.30;;;;;;;16.37;56.38;101111.44;4911499;29;20043;-60
2022/05/11 07:42:33;;;;;;;7.63;2.00;;;;;;;16.43;54.94;101116.00;4919685;29;20027;-60
2022/05/11 07:44:58;;;;;;;9.02;2.50;;;;;;;16.57;53.81;101124.91;4913432;29;20028;-60
2022/05/11 07:47:23;;;;;;;6.68;1.88;;;;;;;16.60;52.96;101129.03;4910426;29;20079;-60
2022/05/11 07:49:49;;;;;;;6.88;1.90;;;;;;;16.60;52.96;101129.03;4905895;29;20382;-59
2022/05/11 07:52:14;;;;;;;8.40;1.80;;;;;;;16.63;52.60;101110.69;4910218;29;20350;-60
2022/05/11 07:54:40;;;;;;;8.90;2.22;;;;;;;16.77;52.18;101110.72;4908931;29;20039;-60
2022/05/11 07:59:57;;;;;;;6.47;1.90;;;;;;;16.76;51.46;101130.53;4909148;29;20088;-60
2022/05/11 08:02:27;;;;;;;6.40;1.88;;;;;;;16.81;51.87;101139.63;4910647;29;20032;-60
2022/05/11 08:04:57;;;;;;;9.13;1.80;;;;;;;16.80;51.67;101116.53;4910244;29;20577;-60
2022/05/11 08:07:26;;;;;;;8.75;1.83;;;;;;;16.92;51.96;101127.47;4909463;29;20083;-60
2022/05/11 08:09:55;;;;;;;7.35;2.08;;;;;;;17.03;51.65;101141.09;4909321;29;20459;-60
2022/05/11 08:12:21;;;;;;;5.88;1.88;;;;;;;16.99;51.20;101123.75;4911540;29;20051;-60
2022/05/11 08:14:46;;;;;;;6.20;2.00;;;;;;;16.94;51.58;101114.69;4910839;29;20028;-60
2022/05/11 08:17:11;;;;;;;7.20;2.08;;;;;;;16.94;51.61;101123.53;4911315;29;20504;-60
2022/05/11 08:19:37;;;;;;;9.95;1.92;;;;;;;17.06;51.82;101126.47;4909546;29;20024;-60
2022/05/11 08:22:04;;;;;;;8.27;1.92;;;;;;;17.13;51.66;101121.09;4911239;29;20028;-60
2022/05/11 08:24:31;;;;;;;8.50;2.40;;;;;;;17.06;50.84;101120.25;4910813;29;20032;-60
2022/05/11 08:26:56;;;;;;;6.68;2.17;;;;;;;17.11;51.34;101109.72;4911508;29;20031;-60
2022/05/11 08:34:51;;;;;;;8.30;2.40;;;;;;;17.38;51.48;101113.22;4915003;29;20068;-60
2022/05/11 08:37:16;;;;;;;6.95;2.03;;;;;;;17.53;51.67;101114.63;4914272;29;20032;-59
2022/05/11 08:39:42;;;;;;;6.82;2.13;;;;;;;17.53;51.42;101117.31;4913895;29;20071;-59
2022/05/11 08:42:08;;;;;;;6.97;2.45;;;;;;;17.38;50.82;101108.69;4914176;29;20036;-59
2022/05/11 08:44:36;;;;;;;6.57;2.20;;;;;;;17.42;51.15;101117.97;4928845;29;20552;-60
2022/05/11 08:47:15;;;;;;;6.28;2.22;;;;;;;17.60;51.53;101110.06;4914589;29;20084;-59
2022/05/11 08:50:04;;;;;;;7.03;2.33;;;;;;;17.64;51.89;101103.28;4913783;29;20040;-60
2022/05/11 08:53:02;;;;;;;8.65;2.22;;;;;;;17.74;51.20;101118.16;4903532;29;20074;-60
2022/05/11 08:55:42;;;;;;;8.43;2.92;;;;;;;17.70;51.00;101114.22;4914283;29;20075;-60
2022/05/11 08:58:39;;;;;;;7.50;2.33;;;;;;;17.80;51.34;101117.28;4914110;29;20378;-60
2022/05/11 09:01:11;;;;;;;8.20;2.42;;;;;;;17.98;51.08;101104.00;4914211;29;20083;-60
2022/05/11 09:03:41;;;;;;;5.38;2.20;;;;;;;18.04;51.33;101111.22;4914013;29;20030;-60
2022/05/11 09:06:16;;;;;;;12.60;2.78;;;;;;;18.06;51.06;101108.31;4913683;29;20282;-60
2022/05/11 09:08:42;;;;;;;6.22;2.25;;;;;;;18.04;50.69;101103.16;4911358;29;20083;-60
2022/05/11 09:11:12;;;;;;;7.45;2.50;;;;;;;18.13;51.15;101109.94;4913922;29;20028;-60
2022/05/11 09:13:39;;;;;;;7.38;2.70;;;;;;;18.10;51.14;101101.47;4913570;29;20055;-59
2022/05/11 09:16:06;;;;;;;6.68;2.50;;;;;;;18.09;51.12;101115.94;4924435;29;20032;-60
2022/05/11 09:18:31;;;;;;;9.48;2.78;;;;;;;18.15;50.37;101098.97;4906139;29;20038;-60
2022/05/11 09:20:59;;;;;;;6.00;2.40;;;;;;;18.42;51.15;101097.78;4922710;29;20028;-59
2022/05/11 09:26:34;;;;;;;11.00;2.95;;;;;;;18.57;50.18;101090.25;5414911;23;20459;-52
2022/05/11 09:29:21;;;;;;;6.80;2.90;;;;;;;18.73;50.20;101088.94;4957155;28;20035;-53
2022/05/11 09:31:51;;;;;;;14.10;3.33;;;;;;;18.69;49.89;101103.03;4961248;28;20054;-51
2022/05/11 09:34:29;;;;;;;10.13;3.20;;;;;;;18.58;50.23;101094.59;4967561;28;20027;-53
2022/05/11 09:37:04;;;;;;;7.07;2.67;;;;;;;18.45;49.89;101094.66;4951109;28;20118;-51
2022/05/11 09:39:31;;;;;;;11.93;2.80;;;;;;;18.38;50.07;101098.44;4946597;28;20863;-52
2022/05/11 09:42:11;;;;;;;7.45;3.05;;;;;;;18.50;50.72;101102.94;4947452;28;20396;-52
2022/05/11 09:44:45;;;;;;;10.70;3.20;;;;;;;18.68;50.37;101094.13;4953012;28;20030;-54
2022/05/11 09:47:27;;;;;;;8.68;3.60;;;;;;;18.80;50.37;101087.03;4944957;28;20097;-50
2022/05/11 09:49:53;;;;;;;9.18;3.58;;;;;;;18.79;49.99;101097.97;4949589;28;20081;-52
2022/05/11 09:52:32;;;;;;;10.52;3.53;;;;;;;18.87;50.22;101086.97;4948295;28;20118;-52
2022/05/11 09:54:57;;;;;;;7.00;3.63;;;;;;;19.08;50.80;101083.91;4949724;28;20055;-50
2022/05/11 09:57:27;;;;;;;15.40;4.10;;;;;;;19.15;50.35;101091.91;4947423;28;20039;-56
2022/05/11 10:00:13;;;;;;;7.85;3.50;;;;;;;19.23;49.83;101090.81;4944423;28;20031;-56
2022/05/11 10:02:43;;;;;;;10.65;3.63;;;;;;;19.41;50.04;101090.84;4946841;28;20058;-56
2022/05/11 10:05:24;;;;;;;7.28;3.88;;;;;;;19.37;49.59;101085.09;4947837;28;20089;-55
2022/05/11 10:08:01;;;;;;;16.83;4.60;;;;;;;19.27;50.25;101108.97;4949752;28;20031;-52
2022/05/11 10:10:37;;;;;;;9.77;4.18;;;;;;;19.02;50.07;101100.91;4943738;28;20034;-56
2022/05/11 10:13:21;;;;;;;21.77;5.40;;;;;;;18.84;50.47;101090.09;4950165;28;20027;-54
2022/05/11 10:21:50;;;;;;;8.13;4.25;;;;;;;18.85;51.14;101089.88;4946368;28;20061;-56
2022/05/11 10:24:30;;;;;;;10.35;4.70;;;;;;;18.92;51.33;101089.81;4946526;28;20083;-55
2022/05/11 10:27:23;;;;;;;8.25;4.40;;;;;;;19.00;51.51;101097.63;4944586;28;20027;-55
2022/05/11 10:30:08;;;;;;;11.27;4.68;;;;;;;19.04;51.35;101074.59;4952295;28;20069;-56
2022/05/11 10:32:58;;;;;;;15.60;5.00;;;;;;;19.29;50.86;101073.75;4949931;28;20027;-55
2022/05/11 10:35:50;;;;;;;11.38;5.25;;;;;;;19.45;51.21;101074.00;4945202;28;20039;-55
2022/05/11 10:38:32;;;;;;;8.52;4.18;;;;;;;19.53;50.44;101062.16;4946918;28;20037;-56
2022/05/11 10:41:16;;;;;;;8.20;4.20;;;;;;;19.66;49.94;101077.31;4947850;28;20035;-54
2022/05/11 10:43:47;;;;;;;10.20;4.53;;;;;;;19.69;49.52;101074.22;4950135;28;20031;-55
2022/05/11 10:46:24;;;;;;;8.32;4.20;;;;;;;19.76;49.02;101070.38;4949856;28;20495;-53
2022/05/11 10:49:23;;;;;;;9.93;4.20;;;;;;;19.89;48.95;101057.78;4948912;28;20534;-53
2022/05/11 10:51:57;;;;;;;8.85;4.53;;;;;;;20.11;48.77;101064.34;4955990;28;20042;-54
2022/05/11 10:54:42;;;;;;;8.93;3.80;;;;;;;20.12;48.03;101057.91;4956055;28;20036;-56
2022/05/11 10:57:30;;;;;;;7.53;3.83;;;;;;;20.13;48.06;101048.75;4959151;28;20019;-54
2022/05/11 11:00:07;;;;;;;9.48;3.90;;;;;;;20.20;48.17;101070.22;4938125;28;20114;-54
2022/05/11 11:03:04;;;;;;;7.53;3.85;;;;;;;20.10;47.33;101070.78;4950236;28;20384;-54
2022/05/11 11:08:50;;;;;;;9.98;4.00;;;;;;;20.35;48.29;101062.56;4943518;28;20086;-51
2022/05/11 11:11:34;;;;;;;6.63;3.42;;;;;;;20.48;47.62;101035.41;4957960;28;20026;-53
2022/05/11 11:14:07;;;;;;;9.10;3.90;;;;;;;20.64;46.80;101045.53;4952417;28;20045;-51
2022/05/11 11:16:35;;;;;;;7.85;3.53;;;;;;;20.65;46.20;101043.66;4960537;28;20118;-54
2022/05/11 11:19:03;;;;;;;7.40;3.30;;;;;;;20.66;45.85;101031.81;4951007;28;20023;-52
2022/05/11 11:21:29;;;;;;;9.00;3.53;;;;;;;20.52;45.33;101023.09;4949973;28;20031;-53
2022/05/11 11:24:22;;;;;;;10.52;3.60;;;;;;;20.54;45.46;101021.03;4949914;28;20293;-53
2022/05/11 11:26:57;;;;;;;8.75;3.80;;;;;;;20.64;46.08;101029.34;4948855;28;20388;-51
2022/05/11 11:29:32;;;;;;;8.27;3.88;;;;;;;20.68;45.93;101030.53;4949904;28;20450;-51
2022/05/11 11:32:00;;;;;;;9.13;3.70;;;;;;;20.87;46.37;101033.16;4937215;28;20055;-51
2022/05/11 11:34:56;;;;;;;9.05;3.47;;;;;;;20.90;43.82;101040.78;4956034;28;20031;-53
2022/05/11 11:37:24;;;;;;;8.85;3.42;;;;;;;21.07;44.52;101028.19;4935721;28;20035;-51
2022/05/11 11:39:54;;;;;;;7.72;3.20;;;;;;;21.12;44.95;101031.03;4949574;28;20039;-53
2022/05/11 11:42:33;;;;;;;6.50;3.65;;;;;;;21.06;44.48;101023.84;4955882;28;20110;-52
2022/05/11 11:44:58;;;;;;;13.73;4.00;;;;;;;21.02;44.80;101015.41;4955991;28;20027;-52
2022/05/11 11:47:25;;;;;;;7.03;3.50;;;;;;;21.16;45.64;101007.06;4959190;28;20078;-53
2022/05/11 11:49:51;;;;;;;7.75;3.58;;;;;;;21.12;44.08;100998.63;4962143;28;20023;-52
2022/05/11 11:52:31;;;;;;;5.78;2.90;;;;;;;21.16;44.22;101012.47;4949374;28;20637;-54
2022/05/11 11:54:57;;;;;;;9.98;3.65;;;;;;;21.36;44.31;101004.00;4937146;28;20492;-52
2022/05/11 11:57:22;;;;;;;5.47;2.88;;;;;;;21.48;44.01;101002.94;4937318;28;20039;-52
2022/05/11 11:59:56;;;;;;;11.03;3.13;;;;;;;21.67;43.38;101008.16;4948229;28;20019;-53
2022/05/11 12:02:36;;;;;;;10.00;3.15;;;;;;;21.59;43.39;101025.59;4951976;28;20275;-53
2022/05/11 12:05:06;;;;;;;5.57;2.92;;;;;;;21.46;43.01;101015.06;4952602;28;20027;-53
2022/05/11 12:16:13;;;;;;;6.32;2.80;;;;;;;21.66;41.89;100996.53;4952852;28;20553;-60
2022/05/11 12:18:40;;;;;;;9.25;3.08;;;;;;;21.74;42.06;100985.34;4938354;28;20035;-61
2022/05/11 12:21:25;;;;;;;8.13;2.58;;;;;;;21.67;41.33;100983.84;4944389;28;20377;-60